Airfield :
LOGIN :

Register | Disclaimer

   EN    FR    IT 

 










Legend :    VFR   Marginal VFR   IFR   Intensive IFR   Very Intensive IFR
Visi :
Ceiling :
>= 8 km
>= 3000ft
5 to 8 km
1000 to 3000 ft
1500m to 5 km
500 to 1000 ft
800 to 1500m
200 to 500 ft
< 800m
< 200 ft
Symbols :   Thunderstorms  Fog  Heavy snow  Heavy precipitations  Wind > 20 kt
SIGMETs :     Misc.  Thunderstorms  Icing  Turbulence  Mountain Waves  Volcanic Ashes






- Airport Elevation : 1465 ft


LSMP - Payerne

CURRENT METAR :
  • 261020Z 15003KT 120V180 2500 BR OVC002 M03/M03 Q1033 RMK AMB

EXPIRED METARs :
  • 260950Z 12003KT 080V160 2300 BR OVC002 M03/M04 Q1033 RMK AMB
  • 260920Z 12003KT 080V150 2300 FZFG OVC002 M04/M04 Q1033 RMK AMB
  • 260850Z VRB01KT 0450 R23/1000V1600U R05/P2000N FZFG OVC002 M03/M04 Q1033 RMK RED
  • 260820Z VRB02KT 0600 R23/0700N R05/1300N FZFG OVC002 M04/M04 Q1033 RMK RED
  • 260750Z AUTO VRB02KT 0750NDV R23/0650N R05/0650N BR OVC002 M04/M04 Q1033 RMK

Expired Forecast.



MET'MAP, your aeronautical weather chart ! - Copyright ORBIFLY December 2007 - Disclaimer

ORBIFLY MET'MAP TEAM :

Programming & Development : Alexandra Zaïnal
Original concept : Baudouin d'Aumeries
Technical & hardware support : Manuel Goepfert
Assistance : Marc-Olivier Méhu

Contact : metmap@orbifly.com




SOURCES & CREDITS :

   NOAA